createdAt,value
2018-05-18T00:00:54.005Z,21.03
2018-05-18T00:03:20.351Z,29.17
2018-05-18T00:05:46.672Z,22.93
2018-05-18T00:08:12.956Z,25.57
2018-05-18T00:10:40.058Z,24.73
2018-05-18T00:13:06.365Z,23.63
2018-05-18T00:15:32.670Z,27.87
2018-05-18T00:17:58.990Z,26.53
2018-05-18T00:20:25.320Z,22.37
2018-05-18T00:22:51.628Z,22.10
2018-05-18T00:25:18.935Z,21.47
2018-05-18T00:27:45.991Z,15.53
2018-05-18T00:30:13.065Z,20.67
2018-05-18T00:32:41.420Z,18.47
2018-05-18T00:35:08.478Z,16.87
2018-05-18T00:37:34.828Z,20.77
2018-05-18T00:40:01.146Z,12.27
2018-05-18T00:42:27.437Z,35.27
2018-05-18T00:44:53.852Z,17.77
2018-05-18T00:47:20.213Z,16.93
2018-05-18T00:49:46.621Z,15.90
2018-05-18T00:52:12.906Z,18.43
2018-05-18T00:54:39.225Z,14.67
2018-05-18T00:57:06.252Z,13.87
2018-05-18T00:59:32.569Z,9.87
2018-05-18T01:01:58.894Z,12.33
2018-05-18T01:04:25.258Z,9.77
2018-05-18T01:06:51.540Z,9.47
2018-05-18T01:09:17.849Z,12.10
2018-05-18T01:11:44.174Z,9.23
2018-05-18T01:14:10.480Z,10.70
2018-05-18T01:16:36.822Z,11.23
2018-05-18T01:19:03.856Z,9.27
2018-05-18T01:21:30.140Z,6.67
2018-05-18T01:23:56.474Z,8.87
2018-05-18T01:26:22.770Z,10.10
2018-05-18T01:28:49.831Z,13.93
2018-05-18T01:31:16.185Z,13.70
2018-05-18T01:33:42.536Z,12.57
2018-05-18T01:36:08.899Z,9.33
2018-05-18T01:38:36.128Z,7.80
2018-05-18T01:41:03.962Z,8.03
2018-05-18T01:43:30.282Z,6.03
2018-05-18T01:45:56.588Z,8.53
2018-05-18T01:48:23.638Z,5.40
2018-05-18T01:50:50.681Z,6.97
2018-05-18T01:53:17.744Z,4.20
2018-05-18T01:55:44.773Z,9.40
2018-05-18T01:58:11.073Z,10.47
2018-05-18T02:00:37.360Z,16.87
2018-05-18T02:03:03.695Z,29.17
2018-05-18T02:05:30.017Z,17.17
2018-05-18T02:07:57.032Z,10.33
2018-05-18T02:10:24.090Z,5.53
2018-05-18T02:12:50.449Z,6.47
2018-05-18T02:15:16.752Z,4.50
2018-05-18T02:17:43.876Z,5.57
2018-05-18T02:20:10.182Z,4.73
2018-05-18T02:22:36.468Z,6.93
2018-05-18T02:25:02.840Z,7.40
2018-05-18T02:27:29.186Z,4.90
2018-05-18T02:29:55.506Z,7.83
2018-05-18T02:32:21.809Z,6.73
2018-05-18T02:34:48.852Z,8.43
2018-05-18T02:37:15.165Z,6.77
2018-05-18T02:39:41.472Z,4.17
2018-05-18T02:42:07.832Z,4.40
2018-05-18T02:44:34.129Z,5.67
2018-05-18T02:47:00.459Z,18.20
2018-05-18T02:49:26.795Z,11.57
2018-05-18T02:51:53.107Z,8.50
2018-05-18T02:54:19.434Z,24.93
2018-05-18T02:56:45.744Z,17.03
2018-05-18T02:59:12.776Z,26.30
2018-05-18T03:01:39.098Z,18.57
2018-05-18T03:04:05.410Z,13.47
2018-05-18T03:06:31.725Z,9.43
2018-05-18T03:08:58.041Z,14.10
2018-05-18T03:11:24.401Z,12.87
2018-05-18T03:13:54.563Z,27.93
2018-05-18T03:16:21.669Z,18.17
2018-05-18T03:18:47.956Z,15.67
2018-05-18T03:21:14.277Z,16.17
2018-05-18T03:23:41.323Z,13.87
2018-05-18T03:26:08.405Z,7.33
2018-05-18T03:28:34.715Z,8.63
2018-05-18T03:31:01.801Z,11.40
2018-05-18T03:33:28.122Z,12.97
2018-05-18T03:35:54.464Z,7.43
2018-05-18T03:38:20.756Z,8.10
2018-05-18T03:40:47.820Z,19.20
2018-05-18T03:43:14.125Z,11.97
2018-05-18T03:45:40.446Z,13.23
2018-05-18T03:48:06.752Z,13.00
2018-05-18T03:50:33.204Z,10.67
2018-05-18T03:52:59.558Z,8.83
2018-05-18T03:55:26.734Z,12.10
2018-05-18T03:57:53.086Z,18.37
2018-05-18T04:00:19.383Z,31.20
2018-05-18T04:02:58.876Z,10.60
2018-05-18T04:05:37.440Z,7.70
2018-05-18T04:08:13.808Z,7.10
2018-05-18T04:10:40.844Z,12.50
2018-05-18T04:13:07.934Z,9.97
2018-05-18T04:15:34.225Z,7.67
2018-05-18T04:18:00.551Z,23.37
2018-05-18T04:20:26.877Z,25.33
2018-05-18T04:22:53.188Z,12.87
2018-05-18T04:25:20.317Z,25.47
2018-05-18T04:27:46.679Z,12.87
2018-05-18T04:30:13.001Z,10.23
2018-05-18T04:32:39.332Z,15.10
2018-05-18T04:35:05.785Z,10.93
2018-05-18T04:37:32.121Z,10.53
2018-05-18T04:39:59.919Z,10.93
2018-05-18T04:42:26.990Z,29.07
2018-05-18T04:44:53.302Z,26.23
2018-05-18T04:47:19.620Z,13.70
2018-05-18T04:49:46.652Z,6.07
2018-05-18T04:52:12.999Z,8.27
2018-05-18T04:54:40.038Z,10.33
2018-05-18T04:57:06.521Z,8.83
2018-05-18T04:59:32.866Z,8.37
2018-05-18T05:01:59.243Z,12.17
2018-05-18T05:04:26.291Z,17.13
2018-05-18T05:06:52.600Z,12.03
2018-05-18T05:09:18.917Z,19.47
2018-05-18T05:11:45.265Z,10.93
2018-05-18T05:14:11.573Z,17.13
2018-05-18T05:16:37.894Z,22.97
2018-05-18T05:19:04.185Z,22.43
2018-05-18T05:21:31.248Z,32.17
2018-05-18T05:23:58.389Z,32.40
2018-05-18T05:26:24.773Z,35.80
2018-05-18T05:28:51.118Z,26.40
2018-05-18T05:31:17.401Z,39.73
2018-05-18T05:33:43.759Z,39.23
2018-05-18T05:36:10.093Z,35.70
2018-05-18T05:38:36.452Z,25.40
2018-05-18T05:41:03.545Z,32.90
2018-05-18T05:43:29.871Z,36.27
2018-05-18T05:45:56.205Z,33.73
2018-05-18T05:48:22.528Z,34.40
2018-05-18T05:50:49.583Z,45.20
2018-05-18T05:53:17.689Z,35.00
2018-05-18T05:55:43.978Z,32.40
2018-05-18T05:58:11.048Z,33.27
2018-05-18T06:00:37.397Z,24.70
2018-05-18T06:03:03.738Z,41.50
2018-05-18T06:05:30.069Z,29.50
2018-05-18T06:07:56.406Z,35.90
2018-05-18T06:10:22.717Z,32.60
2018-05-18T06:12:49.057Z,34.17
2018-05-18T06:15:15.341Z,35.10
2018-05-18T06:17:42.408Z,22.17
2018-05-18T06:20:09.452Z,28.63
2018-05-18T06:22:36.536Z,27.23
2018-05-18T06:25:03.065Z,34.23
2018-05-18T06:27:29.376Z,43.37
2018-05-18T06:29:56.405Z,26.57
2018-05-18T06:32:23.501Z,28.00
2018-05-18T06:34:49.943Z,30.47
2018-05-18T06:37:16.174Z,27.43
2018-05-18T06:39:42.469Z,28.40
2018-05-18T06:42:09.543Z,28.77
2018-05-18T06:44:35.824Z,22.27
2018-05-18T06:47:02.161Z,21.10
2018-05-18T06:49:29.218Z,20.30
2018-05-18T06:51:56.281Z,15.57
2018-05-18T06:54:22.583Z,22.90
2018-05-18T06:56:48.900Z,16.43
2018-05-18T06:59:15.237Z,20.27
2018-05-18T07:01:41.585Z,21.83
2018-05-18T07:04:08.701Z,23.20
2018-05-18T07:06:35.753Z,20.93
2018-05-18T07:09:02.164Z,15.83
2018-05-18T07:11:28.634Z,20.80
2018-05-18T07:13:55.169Z,23.07
2018-05-18T07:16:21.492Z,25.93
2018-05-18T07:18:47.856Z,19.97
2018-05-18T07:21:14.163Z,21.17
2018-05-18T07:23:40.511Z,19.23
2018-05-18T07:26:06.873Z,25.57
2018-05-18T07:28:33.219Z,21.70
2018-05-18T07:30:59.561Z,16.40
2018-05-18T07:33:25.936Z,12.40
2018-05-18T07:35:52.305Z,19.93
2018-05-18T07:38:18.652Z,17.50
2018-05-18T07:40:45.062Z,25.43
2018-05-18T07:43:12.152Z,17.57
2018-05-18T07:45:38.475Z,22.40
2018-05-18T07:48:04.843Z,24.03
2018-05-18T07:50:32.680Z,21.40
2018-05-18T07:52:58.987Z,15.57
2018-05-18T07:55:25.517Z,21.40
2018-05-18T07:57:51.976Z,20.73
2018-05-18T08:00:18.330Z,16.40
2018-05-18T08:02:44.702Z,18.87
2018-05-18T08:05:11.797Z,12.63
2018-05-18T08:07:38.122Z,18.13
2018-05-18T08:10:04.527Z,14.60
2018-05-18T08:12:30.903Z,16.33
2018-05-18T08:14:57.285Z,18.03
2018-05-18T08:17:23.621Z,18.70
2018-05-18T08:19:49.964Z,22.17
2018-05-18T08:22:16.349Z,13.23
2018-05-18T08:24:42.955Z,21.30
2018-05-18T08:27:22.397Z,15.17
2018-05-18T08:29:48.732Z,15.37
2018-05-18T08:32:15.140Z,20.37
2018-05-18T08:34:41.473Z,21.30
2018-05-18T08:37:07.833Z,13.80
2018-05-18T08:39:44.153Z,19.17
2018-05-18T08:42:15.188Z,17.87
2018-05-18T08:44:41.692Z,16.90
2018-05-18T08:47:09.056Z,17.60
2018-05-18T08:49:35.429Z,19.23
2018-05-18T08:52:02.492Z,21.40
2018-05-18T08:54:28.885Z,13.53
2018-05-18T08:56:55.373Z,19.03
2018-05-18T08:59:22.504Z,17.37
2018-05-18T09:01:48.863Z,17.53
2018-05-18T09:04:15.278Z,16.67
2018-05-18T09:06:43.073Z,15.83
2018-05-18T09:09:09.427Z,18.80
2018-05-18T09:11:35.828Z,16.07
2018-05-18T09:14:02.136Z,21.40
2018-05-18T09:16:28.467Z,20.17
2018-05-18T09:18:54.774Z,16.50
2018-05-18T09:21:21.102Z,16.60
2018-05-18T09:23:47.606Z,16.10
2018-05-18T09:26:13.961Z,15.70
2018-05-18T09:28:40.265Z,14.43
2018-05-18T09:31:10.692Z,15.93
2018-05-18T09:33:36.977Z,23.50
2018-05-18T09:36:03.314Z,17.97
2018-05-18T09:38:29.636Z,16.33
2018-05-18T09:40:56.732Z,18.57
2018-05-18T09:43:23.038Z,16.60
2018-05-18T09:45:49.394Z,26.43
2018-05-18T09:48:15.709Z,15.53
2018-05-18T09:50:42.500Z,16.87
2018-05-18T09:53:08.917Z,22.73
2018-05-18T09:55:35.488Z,20.10
2018-05-18T09:58:01.666Z,15.13
2018-05-18T10:00:28.014Z,14.43
2018-05-18T10:02:54.330Z,18.20
2018-05-18T10:05:21.676Z,16.13
2018-05-18T10:07:49.163Z,17.93
2018-05-18T10:10:15.808Z,24.03
2018-05-18T10:12:42.142Z,14.27
2018-05-18T10:15:08.465Z,16.27
2018-05-18T10:17:34.777Z,17.53
2018-05-18T10:20:01.174Z,15.07
2018-05-18T10:22:28.226Z,18.27
2018-05-18T10:24:54.532Z,12.73
2018-05-18T10:27:20.812Z,20.10
2018-05-18T10:29:47.113Z,15.80
2018-05-18T10:32:14.468Z,13.77
2018-05-18T10:34:41.516Z,14.27
2018-05-18T10:37:08.548Z,18.67
2018-05-18T10:39:34.974Z,15.87
2018-05-18T10:42:01.209Z,21.00
2018-05-18T10:44:27.779Z,15.27
2018-05-18T10:46:54.537Z,17.27
2018-05-18T10:49:20.935Z,16.33
2018-05-18T10:51:47.181Z,17.27
2018-05-18T10:54:13.504Z,17.20
2018-05-18T10:56:39.813Z,16.70
2018-05-18T10:59:06.145Z,18.47
2018-05-18T11:01:32.578Z,16.07
2018-05-18T11:03:58.929Z,20.13
2018-05-18T11:06:25.973Z,12.53
2018-05-18T11:08:53.332Z,13.17
2018-05-18T11:11:19.672Z,13.20
2018-05-18T11:13:46.727Z,22.00
2018-05-18T11:16:13.050Z,17.90
2018-05-18T11:18:40.124Z,16.83
2018-05-18T11:21:06.426Z,16.17
2018-05-18T11:23:32.833Z,17.03
2018-05-18T11:25:59.177Z,18.33
2018-05-18T11:28:25.536Z,20.27
2018-05-18T11:30:51.824Z,18.67
2018-05-18T11:33:18.166Z,13.67
2018-05-18T11:35:44.505Z,20.27
2018-05-18T11:38:10.817Z,15.33
2018-05-18T11:40:37.121Z,16.92
2018-05-18T11:43:03.463Z,15.97
2018-05-18T11:45:29.789Z,19.40
2018-05-18T11:47:56.177Z,16.23
2018-05-18T11:50:22.497Z,19.77
2018-05-18T11:52:49.556Z,16.57
2018-05-18T11:55:16.812Z,14.77
2018-05-18T11:57:43.877Z,19.03
2018-05-18T12:00:10.213Z,16.30
2018-05-18T12:02:36.577Z,17.33
2018-05-18T12:05:02.933Z,18.40
2018-05-18T12:07:29.266Z,14.17
2018-05-18T12:09:55.646Z,16.73
2018-05-18T12:12:22.030Z,15.93
2018-05-18T12:14:49.116Z,14.30
2018-05-18T12:17:15.456Z,14.77
2018-05-18T12:19:41.765Z,15.80
2018-05-18T12:22:08.885Z,13.87
2018-05-18T12:24:35.261Z,15.50
2018-05-18T12:27:01.575Z,16.50
2018-05-18T12:29:28.647Z,19.20
2018-05-18T12:31:54.954Z,15.30
2018-05-18T12:34:21.354Z,22.73
2018-05-18T12:36:49.161Z,21.80
2018-05-18T12:39:16.276Z,15.73
2018-05-18T12:41:48.721Z,17.17
2018-05-18T12:44:15.109Z,22.37
2018-05-18T12:46:42.198Z,10.77
2018-05-18T12:49:08.538Z,19.17
2018-05-18T12:51:34.865Z,15.23
2018-05-18T12:54:01.208Z,16.37
2018-05-18T12:56:27.528Z,15.53
2018-05-18T12:58:53.886Z,18.37
2018-05-18T13:01:20.240Z,15.97
2018-05-18T13:03:46.588Z,14.97
2018-05-18T13:06:13.653Z,15.40
2018-05-18T13:08:39.984Z,16.07
2018-05-18T13:11:06.321Z,16.50
2018-05-18T13:13:32.919Z,12.40
2018-05-18T13:16:00.161Z,17.70
2018-05-18T13:18:26.477Z,14.33
2018-05-18T13:20:52.912Z,8.87
2018-05-18T13:23:19.232Z,18.13
2018-05-18T13:25:45.569Z,14.67
2018-05-18T13:28:11.879Z,13.33
2018-05-18T13:30:38.324Z,12.83
2018-05-18T13:33:04.554Z,17.57
2018-05-18T13:35:30.949Z,16.57
2018-05-18T13:37:58.011Z,18.47
2018-05-18T13:40:24.361Z,20.17
2018-05-18T13:42:50.681Z,17.43
2018-05-18T13:45:17.012Z,21.70
2018-05-18T13:47:43.442Z,17.17
2018-05-18T13:50:09.810Z,13.67
2018-05-18T13:52:36.140Z,18.23
2018-05-18T13:55:02.533Z,12.73
2018-05-18T13:57:28.868Z,15.47
2018-05-18T13:59:55.203Z,19.03
2018-05-18T14:02:21.552Z,16.43
2018-05-18T14:04:47.847Z,12.73
2018-05-18T14:07:14.906Z,12.37
2018-05-18T14:09:41.292Z,13.60
2018-05-18T14:12:07.620Z,15.23
2018-05-18T14:14:33.940Z,13.83
2018-05-18T14:17:00.280Z,14.27
2018-05-18T14:19:26.608Z,16.70
2018-05-18T14:21:52.955Z,15.33
2018-05-18T14:24:19.275Z,13.43
2018-05-18T14:26:45.587Z,16.47
2018-05-18T14:29:11.917Z,13.90
2018-05-18T14:31:38.236Z,15.07
2018-05-18T14:34:04.605Z,14.47
2018-05-18T14:36:30.936Z,13.23
2018-05-18T14:38:57.289Z,13.50
2018-05-18T14:41:23.605Z,15.80
2018-05-18T14:43:49.953Z,17.30
2018-05-18T14:46:16.989Z,12.60
2018-05-18T14:48:43.314Z,17.97
2018-05-18T14:51:09.697Z,15.87
2018-05-18T14:53:36.017Z,19.37
2018-05-18T14:56:03.280Z,15.33
2018-05-18T14:58:31.745Z,15.10
2018-05-18T15:00:58.269Z,19.43
2018-05-18T15:03:24.707Z,31.47
2018-05-18T15:05:50.989Z,26.77
2018-05-18T15:08:17.317Z,24.90
2018-05-18T15:10:43.709Z,18.10
2018-05-18T15:13:11.008Z,14.80
2018-05-18T15:15:38.149Z,11.73
2018-05-18T15:18:04.488Z,12.03
2018-05-18T15:20:30.811Z,13.50
2018-05-18T15:22:57.121Z,13.20
2018-05-18T15:25:24.188Z,15.17
2018-05-18T15:27:50.523Z,12.23
2018-05-18T15:30:16.840Z,10.73
2018-05-18T15:32:43.900Z,13.83
2018-05-18T15:35:10.253Z,17.37
2018-05-18T15:37:36.679Z,15.37
2018-05-18T15:40:03.018Z,16.00
2018-05-18T15:42:29.345Z,15.77
2018-05-18T15:44:55.742Z,14.73
2018-05-18T15:47:22.803Z,18.13
2018-05-18T15:49:49.121Z,19.33
2018-05-18T15:52:16.164Z,13.90
2018-05-18T15:54:43.263Z,19.17
2018-05-18T15:57:09.590Z,12.00
2018-05-18T15:59:35.933Z,18.53
2018-05-18T16:02:02.285Z,11.50
2018-05-18T16:04:28.886Z,11.90
2018-05-18T16:06:55.073Z,12.73
2018-05-18T16:09:22.376Z,12.27
2018-05-18T16:11:48.707Z,11.87
2018-05-18T16:14:15.061Z,14.37
2018-05-18T16:16:41.397Z,20.03
2018-05-18T16:19:07.776Z,12.93
2018-05-18T16:21:34.336Z,16.83
2018-05-18T16:24:00.665Z,12.10
2018-05-18T16:26:27.206Z,11.67
2018-05-18T16:28:53.524Z,10.90
2018-05-18T16:31:20.014Z,13.33
2018-05-18T16:33:46.368Z,11.70
2018-05-18T16:36:14.220Z,12.03
2018-05-18T16:38:40.575Z,12.10
2018-05-18T16:41:07.697Z,14.10
2018-05-18T16:43:34.269Z,11.43
2018-05-18T16:46:00.518Z,9.33
2018-05-18T16:48:26.935Z,12.40
2018-05-18T16:50:53.445Z,12.63
2018-05-18T16:53:26.414Z,10.00
2018-05-18T16:55:52.762Z,9.37
2018-05-18T16:58:19.873Z,18.00
2018-05-18T17:00:46.224Z,16.40
2018-05-18T17:03:13.601Z,14.37
2018-05-18T17:05:40.685Z,10.97
2018-05-18T17:08:07.093Z,15.93
2018-05-18T17:10:33.367Z,14.33
2018-05-18T17:12:59.758Z,10.93
2018-05-18T17:15:33.190Z,9.73
2018-05-18T17:17:59.569Z,9.77
2018-05-18T17:20:28.714Z,8.97
2018-05-18T17:22:56.112Z,11.73
2018-05-18T17:25:23.181Z,8.23
2018-05-18T17:27:50.308Z,6.87
2018-05-18T17:30:16.624Z,11.83
2018-05-18T17:32:43.146Z,13.60
2018-05-18T17:35:09.500Z,12.20
2018-05-18T17:37:35.851Z,12.13
2018-05-18T17:40:02.199Z,10.63
2018-05-18T17:42:28.659Z,9.83
2018-05-18T17:44:55.781Z,9.33
2018-05-18T17:47:22.107Z,13.77
2018-05-18T17:49:48.422Z,12.67
2018-05-18T17:52:18.715Z,7.40
2018-05-18T17:54:45.181Z,11.27
2018-05-18T17:57:12.286Z,9.37
2018-05-18T17:59:38.757Z,7.17
2018-05-18T18:02:05.278Z,9.10
2018-05-18T18:04:31.844Z,11.23
2018-05-18T18:06:58.243Z,10.70
2018-05-18T18:09:24.667Z,9.63
2018-05-18T18:11:51.038Z,9.37
2018-05-18T18:14:17.473Z,7.27
2018-05-18T18:16:44.596Z,6.77
2018-05-18T18:19:11.022Z,11.93
2018-05-18T18:21:37.465Z,8.07
2018-05-18T18:24:04.649Z,7.37
2018-05-18T18:26:31.649Z,7.63
2018-05-18T18:28:58.005Z,9.90
2018-05-18T18:31:24.398Z,6.27
2018-05-18T18:33:50.810Z,6.33
2018-05-18T18:36:18.102Z,6.33
2018-05-18T18:38:45.120Z,5.67
2018-05-18T18:41:12.250Z,9.00
2018-05-18T18:43:39.331Z,7.17
2018-05-18T18:46:05.701Z,7.67
2018-05-18T18:48:32.141Z,7.53
2018-05-18T18:50:58.528Z,5.73
2018-05-18T18:53:25.601Z,4.80
2018-05-18T18:55:51.954Z,8.00
2018-05-18T18:58:18.326Z,10.83
2018-05-18T19:00:45.453Z,6.27
2018-05-18T19:03:11.849Z,5.00
2018-05-18T19:05:38.277Z,6.73
2018-05-18T19:08:04.715Z,5.57
2018-05-18T19:10:31.366Z,9.03
2018-05-18T19:12:57.766Z,6.83
2018-05-18T19:15:24.963Z,10.60
2018-05-18T19:17:51.242Z,7.20
2018-05-18T19:20:18.353Z,9.77
2018-05-18T19:22:44.707Z,8.47
2018-05-18T19:25:11.821Z,10.90
2018-05-18T19:27:38.233Z,8.00
2018-05-18T19:30:05.443Z,7.10
2018-05-18T19:32:31.809Z,8.83
2018-05-18T19:34:58.423Z,6.67
2018-05-18T19:37:24.899Z,9.00
2018-05-18T19:39:52.930Z,7.23
2018-05-18T19:42:20.541Z,8.47
2018-05-18T19:44:46.978Z,9.10
2018-05-18T19:47:13.496Z,7.90
2018-05-18T19:49:39.955Z,7.40
2018-05-18T19:52:06.275Z,7.00
2018-05-18T19:54:32.644Z,10.80
2018-05-18T19:56:58.991Z,10.10
2018-05-18T19:59:25.363Z,11.97
2018-05-18T20:01:51.706Z,9.17
2018-05-18T20:04:18.075Z,11.73
2018-05-18T20:06:44.464Z,10.27
2018-05-18T20:09:10.796Z,10.37
2018-05-18T20:11:37.158Z,11.53
2018-05-18T20:14:03.513Z,8.07
2018-05-18T20:16:30.635Z,12.00
2018-05-18T20:18:57.016Z,9.07
2018-05-18T20:21:23.377Z,6.37
2018-05-18T20:23:49.749Z,7.87
2018-05-18T20:26:16.088Z,12.67
2018-05-18T20:28:42.408Z,10.27
2018-05-18T20:31:08.759Z,7.60
2018-05-18T20:33:35.117Z,9.93
2018-05-18T20:36:02.193Z,13.93
2018-05-18T20:38:28.553Z,11.83
2018-05-18T20:40:54.886Z,11.63
2018-05-18T20:43:21.208Z,11.20
2018-05-18T20:45:47.561Z,9.17
2018-05-18T20:48:13.873Z,7.43
2018-05-18T20:50:40.217Z,6.57
2018-05-18T20:53:06.528Z,7.87
2018-05-18T20:55:36.822Z,5.63
2018-05-18T20:58:03.150Z,6.57
2018-05-18T21:00:30.216Z,5.97
2018-05-18T21:02:56.573Z,7.33
2018-05-18T21:05:22.915Z,9.17
2018-05-18T21:07:49.281Z,8.03
2018-05-18T21:10:15.661Z,11.37
2018-05-18T21:12:41.977Z,8.50
2018-05-18T21:15:08.310Z,5.97
2018-05-18T21:17:38.626Z,7.23
2018-05-18T21:20:04.948Z,6.43
2018-05-18T21:22:31.277Z,7.87
2018-05-18T21:24:58.357Z,6.27
2018-05-18T21:27:24.692Z,6.30
2018-05-18T21:29:51.014Z,7.07
2018-05-18T21:32:17.370Z,8.50
2018-05-18T21:34:43.727Z,9.20
2018-05-18T21:37:10.039Z,10.33
2018-05-18T21:39:36.431Z,18.30
2018-05-18T21:42:03.504Z,9.17
2018-05-18T21:44:29.917Z,11.87
2018-05-18T21:46:56.238Z,7.97
2018-05-18T21:49:22.585Z,9.57
2018-05-18T21:51:48.942Z,8.20
2018-05-18T21:54:15.275Z,7.83
2018-05-18T21:56:41.594Z,6.63
2018-05-18T21:59:07.960Z,5.93
2018-05-18T22:01:34.319Z,6.30
2018-05-18T22:04:01.397Z,4.83
2018-05-18T22:06:27.763Z,4.73
2018-05-18T22:08:54.093Z,6.00
2018-05-18T22:11:20.480Z,6.57
2018-05-18T22:13:46.817Z,4.57
2018-05-18T22:16:13.174Z,5.73
2018-05-18T22:18:39.513Z,8.23
2018-05-18T22:21:05.816Z,5.00
2018-05-18T22:23:32.124Z,5.10
2018-05-18T22:25:59.260Z,8.43
2018-05-18T22:28:27.110Z,7.40
2018-05-18T22:30:53.461Z,9.37
2018-05-18T22:33:21.249Z,6.30
2018-05-18T22:35:48.292Z,6.63
2018-05-18T22:38:15.360Z,6.27
2018-05-18T22:40:41.668Z,5.37
2018-05-18T22:43:07.981Z,4.07
2018-05-18T22:45:34.304Z,5.23
2018-05-18T22:48:00.621Z,4.47
2018-05-18T22:50:26.941Z,3.43
2018-05-18T22:52:53.264Z,4.47
2018-05-18T22:55:19.573Z,5.13
2018-05-18T22:57:46.680Z,3.60
2018-05-18T23:00:14.676Z,5.90
2018-05-18T23:02:41.750Z,4.80
2018-05-18T23:05:08.068Z,3.80
2018-05-18T23:07:35.162Z,4.30
2018-05-18T23:10:01.496Z,4.63
2018-05-18T23:12:27.825Z,5.87
2018-05-18T23:14:54.150Z,5.00
2018-05-18T23:17:20.485Z,5.00
2018-05-18T23:19:46.813Z,4.03
2018-05-18T23:22:13.136Z,4.07
2018-05-18T23:24:40.203Z,5.17
2018-05-18T23:27:06.530Z,5.63
2018-05-18T23:29:32.872Z,6.37
2018-05-18T23:31:59.255Z,5.83
2018-05-18T23:34:25.591Z,8.93
2018-05-18T23:36:52.644Z,8.10
2018-05-18T23:39:19.689Z,5.60
2018-05-18T23:41:46.761Z,5.40
2018-05-18T23:44:13.069Z,5.10
2018-05-18T23:46:40.149Z,4.23
2018-05-18T23:49:06.492Z,4.57
2018-05-18T23:51:32.853Z,3.80
2018-05-18T23:53:59.193Z,3.83
2018-05-18T23:56:25.505Z,3.97
2018-05-18T23:58:51.830Z,4.13
